Time;durP1;ratioP1;P1;durP2;ratioP2;P2;SDS_P1;SDS_P2;PMS_P1;PMS_P2;Temp;Humidity;BMP_temperature;BMP_pressure;BME280_temperature;BME280_humidity;BME280_pressure;Samples;Min_cycle;Max_cycle;Signal;HPM_P1;HPM_P2
2022/01/27 00:00:38;;;;;;;283.35;133.10;;;1.70;99.90;;;;;;5115471;27;20047;-52
2022/01/27 00:05:34;;;;;;;344.20;156.32;;;1.70;99.90;;;;;;5104904;28;19936;-52
2022/01/27 00:13:13;;;;;;;308.92;142.70;;;1.60;99.90;;;;;;5073108;28;20051;-52
2022/01/27 00:15:46;;;;;;;328.10;148.43;;;1.60;99.90;;;;;;5079078;27;20046;-52
2022/01/27 00:18:17;;;;;;;314.45;149.07;;;1.60;99.90;;;;;;5092078;27;20059;-52
2022/01/27 00:20:45;;;;;;;318.38;146.20;;;1.50;99.90;;;;;;5016973;27;1315966;-53
2022/01/27 00:23:12;;;;;;;360.80;163.88;;;1.50;99.90;;;;;;5109973;27;20058;-53
2022/01/27 00:25:41;;;;;;;333.90;153.93;;;1.50;99.90;;;;;;5090360;28;20047;-52
2022/01/27 00:28:08;;;;;;;331.88;151.35;;;1.50;99.90;;;;;;5107876;27;20110;-53
2022/01/27 00:30:35;;;;;;;377.38;174.60;;;1.50;99.90;;;;;;5103008;28;20039;-53
2022/01/27 00:33:03;;;;;;;415.15;191.38;;;1.50;99.90;;;;;;5115116;27;20039;-53
2022/01/27 00:35:33;;;;;;;412.27;190.88;;;1.50;99.90;;;;;;5129191;27;20107;-53
2022/01/27 00:38:00;;;;;;;417.42;191.25;;;1.50;99.90;;;;;;5007709;27;20038;-53
2022/01/27 00:40:27;;;;;;;415.40;189.95;;;1.60;99.90;;;;;;5128842;27;20195;-52
2022/01/27 00:42:53;;;;;;;421.88;193.95;;;1.60;99.90;;;;;;5141435;27;20100;-53
2022/01/27 00:45:19;;;;;;;422.83;193.35;;;1.60;99.90;;;;;;5117854;27;20037;-53
2022/01/27 00:47:46;;;;;;;428.42;196.65;;;1.60;99.90;;;;;;5090160;28;20051;-52
2022/01/27 00:50:16;;;;;;;430.95;199.13;;;1.60;99.90;;;;;;5126755;27;20126;-52
2022/01/27 00:52:47;;;;;;;427.13;201.47;;;1.60;99.90;;;;;;5083726;27;20068;-52
2022/01/27 00:55:14;;;;;;;422.35;195.90;;;1.60;99.90;;;;;;5120729;27;20055;-52
2022/01/27 00:58:01;;;;;;;418.13;195.10;;;1.60;99.90;;;;;;5140204;27;20050;-53
2022/01/27 01:00:38;;;;;;;388.27;179.95;;;1.60;99.90;;;;;;5159382;27;20467;-53
2022/01/27 01:03:09;;;;;;;397.70;181.30;;;1.50;99.90;;;;;;5109277;27;20046;-52
2022/01/27 01:16:12;;;;;;;393.70;181.07;;;1.50;99.90;;;;;;5132233;27;20036;-53
2022/01/27 01:18:55;;;;;;;385.55;173.88;;;1.40;99.90;;;;;;5142272;27;20463;-53
2022/01/27 01:30:05;;;;;;;412.75;183.35;;;1.40;99.90;;;;;;5024428;28;20044;-52
2022/01/27 01:34:54;;;;;;;397.25;182.23;;;1.40;99.90;;;;;;5116259;28;20093;-52
2022/01/27 01:37:20;;;;;;;396.38;186.90;;;1.40;99.90;;;;;;5116225;28;20027;-52
2022/01/27 01:39:46;;;;;;;410.33;189.27;;;1.50;99.90;;;;;;5116345;28;20061;-52
2022/01/27 01:42:12;;;;;;;388.58;179.63;;;1.50;99.90;;;;;;5115625;28;20414;-52
2022/01/27 01:44:39;;;;;;;395.17;183.10;;;1.50;99.90;;;;;;5115940;27;20024;-52
2022/01/27 01:47:09;;;;;;;386.60;178.45;;;1.50;99.90;;;;;;5115858;28;20096;-52
2022/01/27 01:49:36;;;;;;;402.85;182.65;;;1.50;99.90;;;;;;5115944;28;20089;-52
2022/01/27 01:52:07;;;;;;;410.15;187.27;;;1.50;99.90;;;;;;5115748;28;20046;-52
2022/01/27 01:54:34;;;;;;;402.48;184.30;;;1.40;99.90;;;;;;5115767;28;20026;-52
2022/01/27 01:57:00;;;;;;;404.55;186.38;;;1.40;99.90;;;;;;5115720;28;20031;-52
2022/01/27 01:59:26;;;;;;;419.20;190.32;;;1.40;99.90;;;;;;5114238;28;20430;-52
2022/01/27 02:01:52;;;;;;;414.40;193.30;;;1.30;99.90;;;;;;5114544;28;20031;-52
2022/01/27 02:04:18;;;;;;;408.80;189.05;;;1.40;99.90;;;;;;5115546;28;20030;-52
2022/01/27 02:06:58;;;;;;;384.20;178.77;;;1.40;99.90;;;;;;5115494;28;20032;-52
2022/01/27 02:10:02;;;;;;;399.00;184.55;;;1.40;99.90;;;;;;5115536;28;20052;-52
2022/01/27 02:17:59;;;;;;;393.88;174.88;;;1.30;99.90;;;;;;5115277;28;20062;-52
2022/01/27 02:20:26;;;;;;;397.55;179.43;;;1.30;99.90;;;;;;5115247;28;20043;-52
2022/01/27 02:22:52;;;;;;;386.80;178.45;;;1.30;99.90;;;;;;5115064;28;20066;-52
2022/01/27 02:25:18;;;;;;;425.45;197.23;;;1.20;99.90;;;;;;5115413;28;20015;-52
2022/01/27 02:27:45;;;;;;;442.38;207.40;;;1.30;99.90;;;;;;5115155;28;20076;-52
2022/01/27 02:30:14;;;;;;;452.83;207.10;;;1.30;99.90;;;;;;5114853;28;20047;-52
2022/01/27 02:32:44;;;;;;;476.08;219.57;;;1.30;99.90;;;;;;5115111;28;20028;-52
2022/01/27 02:35:13;;;;;;;501.42;234.93;;;1.40;99.90;;;;;;5115254;28;20110;-52
2022/01/27 02:37:39;;;;;;;507.77;237.45;;;1.40;99.90;;;;;;5115120;28;20111;-52
2022/01/27 02:40:05;;;;;;;513.65;241.13;;;1.40;99.90;;;;;;5115005;28;20047;-52
2022/01/27 02:42:36;;;;;;;545.42;253.30;;;1.40;99.90;;;;;;5114656;28;20130;-52
2022/01/27 02:45:13;;;;;;;541.30;255.32;;;1.50;99.90;;;;;;5115106;28;20503;-52
2022/01/27 02:47:39;;;;;;;550.58;269.77;;;1.40;99.90;;;;;;5114962;28;20028;-52
2022/01/27 02:50:07;;;;;;;561.40;267.85;;;1.30;99.90;;;;;;5114847;28;20106;-52
2022/01/27 02:52:34;;;;;;;547.97;263.80;;;1.10;99.90;;;;;;5114867;28;20712;-52
2022/01/27 02:55:00;;;;;;;543.17;262.67;;;1.00;99.90;;;;;;5114766;28;20119;-52
2022/01/27 02:57:26;;;;;;;526.35;247.00;;;0.90;99.90;;;;;;5114901;28;20036;-52
2022/01/27 02:59:53;;;;;;;509.00;240.63;;;0.90;99.90;;;;;;5114631;28;20038;-52
2022/01/27 03:02:19;;;;;;;519.33;245.93;;;0.80;99.90;;;;;;5114888;28;20023;-52
2022/01/27 03:04:45;;;;;;;531.20;258.10;;;0.80;99.90;;;;;;5114684;28;20049;-52
2022/01/27 03:07:12;;;;;;;528.95;254.45;;;0.60;99.90;;;;;;5114894;28;20034;-52
2022/01/27 03:09:38;;;;;;;535.10;256.90;;;0.50;99.90;;;;;;5114781;28;20023;-52
2022/01/27 03:12:08;;;;;;;550.05;267.23;;;0.40;99.90;;;;;;5114855;28;20024;-52
2022/01/27 03:14:37;;;;;;;540.15;261.15;;;0.40;99.90;;;;;;5117497;28;20023;-52
2022/01/27 03:17:05;;;;;;;528.40;250.95;;;0.30;99.90;;;;;;5118926;28;20024;-52
2022/01/27 03:19:32;;;;;;;521.95;250.25;;;0.40;99.90;;;;;;5118836;28;20038;-52
2022/01/27 03:22:01;;;;;;;539.55;255.98;;;0.30;99.90;;;;;;5118597;28;20055;-52
2022/01/27 03:24:27;;;;;;;544.40;260.55;;;0.20;99.90;;;;;;5118912;28;20032;-52
2022/01/27 03:26:55;;;;;;;563.05;268.85;;;0.10;99.90;;;;;;5118723;28;20481;-52
2022/01/27 03:29:21;;;;;;;545.13;265.48;;;0.10;99.90;;;;;;5118341;28;20473;-52
2022/01/27 03:31:47;;;;;;;540.33;258.17;;;0.10;99.90;;;;;;5118578;27;20031;-52
2022/01/27 03:34:14;;;;;;;526.97;250.50;;;-0.10;99.90;;;;;;5118376;28;20469;-52
2022/01/27 03:36:40;;;;;;;504.48;245.02;;;0.00;99.90;;;;;;5118573;28;20030;-52
2022/01/27 03:39:08;;;;;;;512.13;242.95;;;-0.10;99.90;;;;;;5118431;28;20473;-52
2022/01/27 03:41:37;;;;;;;519.67;249.52;;;-0.20;99.90;;;;;;5118183;28;20081;-52
2022/01/27 03:44:05;;;;;;;535.83;251.68;;;-0.40;99.90;;;;;;5118388;28;20106;-52
2022/01/27 03:46:31;;;;;;;522.83;250.35;;;-0.60;99.90;;;;;;5118299;28;20012;-52
2022/01/27 03:48:58;;;;;;;524.88;246.57;;;-0.60;99.90;;;;;;5118224;28;20489;-52
2022/01/27 03:51:24;;;;;;;544.78;258.85;;;-0.60;99.90;;;;;;5118141;28;20465;-52
2022/01/27 03:53:50;;;;;;;541.05;259.83;;;-0.60;99.90;;;;;;5118062;28;20035;-52
2022/01/27 03:56:16;;;;;;;543.35;256.50;;;-0.60;99.90;;;;;;5118213;28;20041;-52
2022/01/27 03:58:42;;;;;;;542.22;255.60;;;-0.70;99.90;;;;;;5117902;28;20067;-52
2022/01/27 04:01:08;;;;;;;540.42;262.63;;;-0.80;99.90;;;;;;5118181;28;20481;-52
2022/01/27 04:03:38;;;;;;;559.15;265.33;;;-0.80;99.90;;;;;;5117898;28;20082;-52
2022/01/27 04:06:09;;;;;;;542.25;258.65;;;-0.90;99.90;;;;;;5118033;28;20026;-52
2022/01/27 04:08:37;;;;;;;543.00;258.80;;;-0.80;99.90;;;;;;5117953;28;20036;-52
2022/01/27 04:11:07;;;;;;;557.78;264.00;;;-0.80;99.90;;;;;;5117734;28;20039;-52
2022/01/27 04:13:34;;;;;;;525.78;243.05;;;-0.90;99.90;;;;;;5118051;28;20027;-52
2022/01/27 04:16:00;;;;;;;500.70;230.45;;;-0.80;99.90;;;;;;5117667;28;20027;-52
2022/01/27 04:18:27;;;;;;;498.67;230.15;;;-0.70;99.90;;;;;;5117713;28;20476;-52
2022/01/27 04:20:53;;;;;;;496.27;232.35;;;-0.80;99.90;;;;;;5117701;28;20034;-52
2022/01/27 04:23:20;;;;;;;504.13;233.93;;;-0.80;99.90;;;;;;5117890;28;20030;-52
2022/01/27 04:25:47;;;;;;;507.52;226.70;;;-0.80;99.90;;;;;;5116721;28;20032;-52
2022/01/27 04:28:18;;;;;;;540.15;262.35;;;-0.80;99.90;;;;;;5117390;28;20020;-52
2022/01/27 04:30:45;;;;;;;517.20;244.02;;;-0.80;99.90;;;;;;5117214;27;20423;-52
2022/01/27 04:33:11;;;;;;;536.75;252.32;;;-0.90;99.90;;;;;;5117325;28;20373;-52
2022/01/27 04:35:43;;;;;;;521.28;241.40;;;-0.90;99.90;;;;;;5117415;28;20503;-52
2022/01/27 04:41:10;;;;;;;506.08;235.15;;;-1.10;99.90;;;;;;5117168;28;20058;-52
2022/01/27 04:43:47;;;;;;;498.80;231.75;;;-1.20;99.90;;;;;;5117173;28;20461;-52
2022/01/27 04:46:23;;;;;;;469.45;213.95;;;-1.30;99.90;;;;;;5116979;28;20030;-52
2022/01/27 04:48:55;;;;;;;473.20;215.15;;;-1.30;99.90;;;;;;5117209;28;20024;-52
2022/01/27 04:51:23;;;;;;;470.83;220.38;;;-1.30;99.90;;;;;;5117078;28;20412;-52
2022/01/27 04:56:26;;;;;;;478.65;216.43;;;-1.20;99.90;;;;;;5117023;28;20374;-52
2022/01/27 04:58:57;;;;;;;491.23;222.52;;;-1.30;99.90;;;;;;5116916;28;20396;-52
2022/01/27 05:01:31;;;;;;;467.95;218.95;;;-1.40;99.90;;;;;;5116532;28;20042;-52
2022/01/27 05:04:03;;;;;;;468.90;209.25;;;-1.40;99.90;;;;;;5116704;28;20043;-52
2022/01/27 05:06:29;;;;;;;462.10;208.40;;;-1.40;99.90;;;;;;5116655;28;20532;-52
2022/01/27 05:08:55;;;;;;;474.73;212.98;;;-1.40;99.90;;;;;;5116750;28;20040;-52
2022/01/27 05:11:27;;;;;;;460.00;211.75;;;-1.50;99.90;;;;;;5116478;28;20468;-52
2022/01/27 05:14:13;;;;;;;456.88;211.38;;;-1.60;99.90;;;;;;5116475;28;20031;-52
2022/01/27 05:16:39;;;;;;;438.73;198.45;;;-1.50;99.90;;;;;;5116232;28;20027;-52
2022/01/27 05:19:05;;;;;;;416.27;195.73;;;-1.50;99.90;;;;;;5116505;28;20116;-52
2022/01/27 05:21:35;;;;;;;458.45;204.52;;;-1.60;99.90;;;;;;5116329;28;20023;-52
2022/01/27 05:24:02;;;;;;;452.25;206.68;;;-1.70;99.90;;;;;;5116471;28;20031;-52
2022/01/27 05:26:29;;;;;;;457.60;210.63;;;-1.70;99.90;;;;;;5116326;28;20028;-52
2022/01/27 05:28:55;;;;;;;456.38;211.73;;;-1.70;99.90;;;;;;5116219;28;20024;-53
2022/01/27 05:31:21;;;;;;;448.20;206.73;;;-1.70;99.90;;;;;;5116077;28;20028;-52
2022/01/27 05:33:47;;;;;;;465.25;217.95;;;-1.80;99.90;;;;;;5116189;28;20042;-52
2022/01/27 05:36:13;;;;;;;479.58;221.95;;;-1.80;99.90;;;;;;5115992;28;20063;-52
2022/01/27 05:38:39;;;;;;;456.13;208.45;;;-1.70;99.90;;;;;;5116173;28;20027;-52
2022/01/27 05:41:06;;;;;;;428.35;195.52;;;-1.70;99.90;;;;;;5115930;28;20039;-52
2022/01/27 05:43:32;;;;;;;460.30;206.18;;;-1.70;99.90;;;;;;5115897;28;20034;-52
2022/01/27 05:45:59;;;;;;;435.92;195.95;;;-1.70;99.90;;;;;;5115797;28;20024;-52
2022/01/27 05:48:25;;;;;;;438.65;203.55;;;-1.70;99.90;;;;;;5115995;27;20035;-52
2022/01/27 05:50:51;;;;;;;473.13;218.02;;;-1.80;99.90;;;;;;5115719;28;20361;-52
2022/01/27 05:53:17;;;;;;;458.33;212.32;;;-1.80;99.90;;;;;;5115864;28;20032;-52
2022/01/27 05:55:43;;;;;;;459.98;209.15;;;-1.80;99.90;;;;;;5115767;28;20030;-52
2022/01/27 05:58:09;;;;;;;501.55;231.73;;;-1.80;99.90;;;;;;5115679;28;20046;-52
2022/01/27 06:00:35;;;;;;;486.60;229.18;;;-1.80;99.90;;;;;;5115779;28;20027;-52
2022/01/27 06:03:02;;;;;;;455.33;215.73;;;-1.70;99.90;;;;;;5115671;28;20070;-52
2022/01/27 06:05:28;;;;;;;553.17;269.73;;;-1.60;99.90;;;;;;5115322;28;20031;-52
2022/01/27 06:07:54;;;;;;;518.30;248.70;;;-1.60;99.90;;;;;;5115557;28;20099;-52
2022/01/27 06:10:20;;;;;;;508.92;239.40;;;-1.50;99.90;;;;;;5115638;28;20529;-52
2022/01/27 06:12:52;;;;;;;547.17;262.85;;;-1.30;99.90;;;;;;5115417;28;20032;-52
2022/01/27 06:15:19;;;;;;;534.20;251.77;;;-1.20;99.90;;;;;;5115495;28;20049;-52
2022/01/27 06:17:45;;;;;;;520.92;244.10;;;-1.20;99.90;;;;;;5105408;28;20028;-53
2022/01/27 06:20:12;;;;;;;570.42;257.02;;;-1.10;99.90;;;;;;5105441;28;20119;-52
2022/01/27 06:22:41;;;;;;;504.65;228.95;;;-1.00;99.90;;;;;;5110929;28;20105;-52
2022/01/27 06:25:11;;;;;;;561.55;237.60;;;-1.00;99.90;;;;;;5109934;28;20077;-52
2022/01/27 06:27:37;;;;;;;598.25;246.88;;;-1.00;99.90;;;;;;5115883;28;20024;-52
2022/01/27 06:30:06;;;;;;;497.42;209.15;;;-1.00;99.90;;;;;;5107135;28;20051;-52
2022/01/27 06:32:33;;;;;;;447.83;191.13;;;-1.00;99.90;;;;;;5115278;28;20032;-52
2022/01/27 06:34:59;;;;;;;422.73;192.98;;;-0.90;99.90;;;;;;5104787;28;20028;-52
2022/01/27 06:37:25;;;;;;;401.17;182.73;;;-0.90;99.90;;;;;;5107398;28;20054;-53
2022/01/27 06:39:52;;;;;;;551.67;229.80;;;-0.80;99.90;;;;;;5113252;28;20515;-52
2022/01/27 06:42:19;;;;;;;669.83;259.85;;;-0.70;99.90;;;;;;5115137;28;20074;-52
2022/01/27 06:44:45;;;;;;;724.65;273.38;;;-0.60;99.90;;;;;;5114924;28;20027;-52
2022/01/27 06:47:30;;;;;;;666.63;258.42;;;-0.50;99.90;;;;;;5111698;28;20023;-53
2022/01/27 06:50:45;;;;;;;725.60;274.13;;;-0.40;99.90;;;;;;5111489;28;20042;-52
2022/01/27 06:53:14;;;;;;;707.25;262.20;;;-0.20;99.90;;;;;;5112079;28;20496;-52
2022/01/27 06:55:40;;;;;;;639.80;249.13;;;0.00;99.90;;;;;;5105744;28;20035;-52
2022/01/27 06:58:06;;;;;;;649.22;252.18;;;0.10;99.90;;;;;;5113132;28;20050;-52
2022/01/27 07:00:32;;;;;;;626.58;248.05;;;0.30;99.90;;;;;;5114267;28;20031;-52
2022/01/27 07:02:58;;;;;;;678.83;264.73;;;0.40;99.90;;;;;;5113197;28;20034;-52
2022/01/27 07:05:24;;;;;;;511.50;194.13;;;0.50;99.90;;;;;;5114071;28;20069;-52
2022/01/27 07:07:50;;;;;;;444.23;181.25;;;0.50;99.90;;;;;;5105246;28;20030;-52
2022/01/27 07:10:16;;;;;;;390.73;176.93;;;0.60;99.90;;;;;;5101100;28;20032;-53
2022/01/27 07:12:42;;;;;;;390.30;178.55;;;0.60;99.90;;;;;;5107007;28;20037;-52
2022/01/27 07:15:11;;;;;;;396.88;184.15;;;0.80;99.90;;;;;;5109168;28;20028;-52
2022/01/27 07:17:39;;;;;;;466.33;214.90;;;0.70;99.90;;;;;;5114635;28;20046;-52
2022/01/27 07:20:08;;;;;;;450.33;218.00;;;0.80;99.90;;;;;;5111851;28;20050;-52
2022/01/27 07:22:35;;;;;;;445.17;207.93;;;0.80;99.90;;;;;;5113928;28;20036;-52
2022/01/27 07:25:03;;;;;;;444.55;209.27;;;0.70;99.90;;;;;;5112376;28;20030;-52
2022/01/27 07:27:31;;;;;;;433.10;201.77;;;0.80;99.90;;;;;;5110604;28;20024;-52
2022/01/27 07:29:57;;;;;;;441.58;204.70;;;0.80;99.90;;;;;;5110975;28;20040;-52
2022/01/27 07:32:26;;;;;;;419.00;193.40;;;0.90;99.90;;;;;;5110936;28;20599;-52
2022/01/27 07:34:52;;;;;;;437.05;198.70;;;0.90;99.90;;;;;;5107439;28;20118;-52
2022/01/27 07:37:18;;;;;;;468.40;205.80;;;1.10;99.90;;;;;;5101906;28;20032;-52
2022/01/27 07:39:44;;;;;;;416.73;188.70;;;1.20;99.90;;;;;;5112447;28;20028;-52
2022/01/27 07:42:10;;;;;;;505.67;218.50;;;1.30;99.90;;;;;;5109222;28;20483;-52
2022/01/27 07:44:36;;;;;;;564.65;258.58;;;1.40;99.90;;;;;;5103812;28;20088;-52
2022/01/27 07:47:03;;;;;;;461.48;208.88;;;1.50;99.90;;;;;;5109418;28;20036;-52
2022/01/27 07:49:29;;;;;;;426.80;191.32;;;1.50;99.90;;;;;;5114315;28;20020;-52
2022/01/27 07:51:55;;;;;;;399.85;180.57;;;1.60;99.90;;;;;;5113660;28;20114;-52
2022/01/27 07:54:21;;;;;;;439.90;195.48;;;1.50;99.90;;;;;;5113766;28;20023;-52
2022/01/27 07:56:47;;;;;;;429.55;200.85;;;1.60;99.90;;;;;;5112790;28;20074;-52
2022/01/27 07:59:14;;;;;;;425.40;205.85;;;1.70;99.90;;;;;;5109201;28;20059;-52
2022/01/27 08:01:40;;;;;;;392.20;193.23;;;1.80;99.90;;;;;;5108697;28;20027;-52
2022/01/27 08:04:06;;;;;;;401.58;198.52;;;1.80;99.90;;;;;;5117511;28;20361;-52
2022/01/27 08:06:32;;;;;;;393.02;196.55;;;1.90;99.90;;;;;;5100614;28;20028;-53
2022/01/27 08:08:58;;;;;;;400.75;198.32;;;1.90;99.90;;;;;;5097007;28;20099;-52
2022/01/27 08:11:24;;;;;;;394.52;185.40;;;1.90;99.90;;;;;;5110638;28;20059;-52
2022/01/27 08:13:50;;;;;;;351.17;167.10;;;2.00;99.90;;;;;;5114343;28;20059;-52
2022/01/27 08:16:16;;;;;;;351.35;168.93;;;2.10;99.90;;;;;;5115274;28;20107;-52
2022/01/27 08:18:42;;;;;;;373.92;179.88;;;2.30;99.90;;;;;;5112459;28;20054;-52
2022/01/27 08:21:08;;;;;;;367.58;175.85;;;2.40;99.90;;;;;;5115530;28;20032;-52
2022/01/27 08:23:34;;;;;;;385.67;179.70;;;2.50;99.90;;;;;;5116573;27;20036;-52
2022/01/27 08:26:12;;;;;;;383.95;187.13;;;2.50;99.90;;;;;;5108833;28;21767;-52
2022/01/27 08:28:48;;;;;;;386.75;182.82;;;2.50;99.90;;;;;;5109498;28;20459;-52
2022/01/27 08:31:15;;;;;;;380.58;181.05;;;2.60;99.90;;;;;;5109029;28;20048;-52
2022/01/27 08:33:41;;;;;;;413.15;198.95;;;2.80;99.90;;;;;;5117595;28;20473;-52
2022/01/27 08:36:08;;;;;;;431.05;205.93;;;2.90;99.90;;;;;;5117063;28;20051;-52
2022/01/27 08:38:36;;;;;;;409.98;202.10;;;2.80;99.90;;;;;;5096132;28;20035;-52
2022/01/27 08:41:04;;;;;;;413.38;203.10;;;2.80;99.90;;;;;;5105517;28;20039;-52
2022/01/27 08:43:30;;;;;;;415.48;198.13;;;3.00;99.90;;;;;;5109022;27;20026;-52
2022/01/27 08:45:58;;;;;;;410.75;203.02;;;3.20;99.90;;;;;;5109253;28;20024;-52
2022/01/27 08:48:26;;;;;;;395.20;190.98;;;3.40;99.90;;;;;;5117584;28;20032;-53
2022/01/27 08:50:59;;;;;;;388.10;187.18;;;3.30;99.90;;;;;;5106829;28;20016;-53
2022/01/27 08:53:27;;;;;;;408.25;196.68;;;3.40;99.90;;;;;;5112967;28;20496;-53
2022/01/27 08:55:53;;;;;;;420.98;203.55;;;3.40;99.90;;;;;;5110349;28;20027;-53
2022/01/27 08:58:21;;;;;;;387.23;186.15;;;3.30;99.90;;;;;;5114727;28;20024;-53
2022/01/27 09:00:47;;;;;;;389.25;181.88;;;3.50;99.90;;;;;;5117038;28;20524;-53
2022/01/27 09:03:13;;;;;;;365.50;179.73;;;3.60;99.90;;;;;;5115814;28;20119;-52
2022/01/27 09:05:40;;;;;;;362.13;171.05;;;3.70;99.90;;;;;;5108033;28;20020;-52
2022/01/27 09:08:06;;;;;;;365.55;175.73;;;3.70;99.90;;;;;;5115651;28;20411;-53
2022/01/27 09:10:33;;;;;;;342.67;159.52;;;3.90;99.90;;;;;;5116984;28;20039;-53
2022/01/27 09:13:02;;;;;;;320.05;154.27;;;3.80;99.90;;;;;;5109193;28;20559;-52
2022/01/27 09:15:29;;;;;;;351.30;157.43;;;3.90;99.90;;;;;;5106886;28;20102;-52
2022/01/27 09:17:56;;;;;;;332.95;154.05;;;3.90;99.90;;;;;;5116846;28;20054;-52
2022/01/27 09:20:24;;;;;;;327.35;153.80;;;4.10;99.90;;;;;;5116238;28;20023;-52
2022/01/27 09:22:52;;;;;;;320.92;154.60;;;4.20;99.90;;;;;;5115358;28;20457;-53
2022/01/27 09:25:23;;;;;;;348.73;158.45;;;4.30;99.90;;;;;;5106816;27;20031;-53
2022/01/27 09:27:49;;;;;;;347.00;158.52;;;4.30;99.90;;;;;;5115248;27;20080;-53
2022/01/27 09:30:18;;;;;;;332.35;156.38;;;4.40;99.90;;;;;;5116461;27;20123;-52
2022/01/27 09:32:46;;;;;;;350.23;157.82;;;4.50;99.90;;;;;;5116687;28;20035;-53
2022/01/27 09:35:12;;;;;;;347.92;152.82;;;4.40;99.90;;;;;;5116763;28;20164;-52
2022/01/27 09:37:38;;;;;;;335.90;150.63;;;4.30;99.90;;;;;;5116926;28;20032;-53
2022/01/27 09:40:08;;;;;;;327.98;151.60;;;4.40;99.90;;;;;;5116726;28;20042;-53
2022/01/27 09:42:37;;;;;;;332.57;148.07;;;4.40;99.90;;;;;;5116002;28;20031;-52
2022/01/27 09:45:05;;;;;;;326.30;144.85;;;4.30;99.90;;;;;;5116383;27;20264;-52
2022/01/27 09:47:34;;;;;;;338.25;150.18;;;4.40;99.90;;;;;;5116425;28;20457;-52
2022/01/27 09:50:47;;;;;;;327.30;145.95;;;4.40;99.90;;;;;;5104516;28;20472;-52
2022/01/27 09:52:54;;;;;;;306.38;144.65;;;4.30;99.90;;;;;;5110142;28;20040;-52
2022/01/27 09:55:21;;;;;;;305.70;146.13;;;4.50;99.90;;;;;;5116121;28;20036;-52
2022/01/27 09:57:48;;;;;;;309.92;140.20;;;5.50;99.90;;;;;;5115909;28;20107;-52
2022/01/27 10:00:17;;;;;;;323.33;147.02;;;6.90;99.90;;;;;;5115828;27;20389;-53
2022/01/27 10:03:09;;;;;;;306.98;151.45;;;7.60;99.90;;;;;;5115511;28;20027;-53
2022/01/27 10:05:37;;;;;;;258.30;123.20;;;9.00;99.70;;;;;;5112792;28;20020;-53
2022/01/27 10:08:08;;;;;;;271.50;133.05;;;9.10;96.60;;;;;;5115728;27;20065;-53
2022/01/27 10:10:43;;;;;;;267.92;129.13;;;9.50;97.40;;;;;;5115039;27;20035;-53
2022/01/27 10:13:35;;;;;;;303.95;135.63;;;9.10;96.70;;;;;;5115227;28;20433;-53
2022/01/27 10:16:01;;;;;;;264.48;126.60;;;9.50;97.20;;;;;;5114286;28;20027;-53
2022/01/27 10:18:35;;;;;;;245.25;121.78;;;9.70;96.40;;;;;;5115404;28;20065;-53
2022/01/27 10:21:07;;;;;;;232.50;115.30;;;9.90;94.80;;;;;;5115236;28;20057;-53
2022/01/27 10:23:40;;;;;;;280.75;123.15;;;10.20;94.90;;;;;;5113644;27;20504;-53
2022/01/27 10:26:23;;;;;;;248.43;121.85;;;10.80;95.10;;;;;;5115303;28;20054;-53
2022/01/27 10:29:07;;;;;;;237.43;113.93;;;10.50;93.40;;;;;;5114878;28;20024;-53
2022/01/27 10:31:35;;;;;;;235.15;113.32;;;10.40;93.10;;;;;;5115573;28;20045;-53
2022/01/27 10:34:03;;;;;;;233.02;113.10;;;9.70;94.50;;;;;;5115626;28;20063;-53
2022/01/27 10:36:40;;;;;;;238.70;115.63;;;9.30;95.40;;;;;;5115221;28;20031;-53
2022/01/27 10:39:12;;;;;;;221.80;109.53;;;9.10;95.90;;;;;;5112837;28;20076;-53
2022/01/27 10:41:56;;;;;;;243.18;111.05;;;9.20;96.20;;;;;;5114961;28;20070;-53
2022/01/27 10:44:23;;;;;;;226.70;109.07;;;9.20;96.50;;;;;;5115274;28;20058;-52
2022/01/27 10:47:12;;;;;;;218.88;105.45;;;9.00;96.30;;;;;;5112885;28;20019;-53
2022/01/27 10:49:43;;;;;;;217.70;109.22;;;8.80;97.00;;;;;;5114110;28;20035;-53
2022/01/27 10:52:20;;;;;;;228.75;106.13;;;8.60;96.40;;;;;;5113712;28;20028;-52
2022/01/27 10:54:57;;;;;;;220.02;112.22;;;8.60;97.50;;;;;;5112568;28;20491;-53
2022/01/27 10:57:27;;;;;;;220.65;113.60;;;8.70;96.90;;;;;;5114605;28;20110;-52
2022/01/27 11:00:12;;;;;;;231.48;116.10;;;9.60;97.50;;;;;;5115222;28;20499;-52
2022/01/27 11:02:58;;;;;;;247.05;123.45;;;10.40;94.50;;;;;;5115143;28;20024;-53
2022/01/27 11:05:33;;;;;;;250.88;128.60;;;10.30;93.60;;;;;;5115104;28;20020;-53
2022/01/27 11:08:00;;;;;;;246.57;120.05;;;10.00;93.90;;;;;;5115168;28;20028;-52
2022/01/27 11:10:27;;;;;;;243.70;119.65;;;11.00;93.10;;;;;;5115087;28;20024;-53
2022/01/27 11:12:53;;;;;;;251.50;121.32;;;12.10;90.00;;;;;;5115339;28;20049;-53
2022/01/27 11:15:21;;;;;;;231.23;116.90;;;13.10;78.10;;;;;;5115236;28;20362;-53
2022/01/27 11:17:49;;;;;;;244.30;123.93;;;13.10;73.80;;;;;;5115091;28;20417;-53
2022/01/27 11:20:28;;;;;;;262.10;125.10;;;13.30;71.70;;;;;;5102928;28;20338;-53
2022/01/27 11:23:44;;;;;;;239.48;119.75;;;13.90;70.70;;;;;;5107714;28;20033;-53
2022/01/27 11:25:58;;;;;;;210.27;113.28;;;14.20;63.50;;;;;;5105883;28;20091;-53
2022/01/27 11:28:26;;;;;;;195.18;100.25;;;14.70;57.00;;;;;;5106858;28;20027;-53
2022/01/27 11:31:24;;;;;;;231.65;114.55;;;15.10;53.70;;;;;;5110573;28;20376;-53
2022/01/27 11:34:02;;;;;;;193.25;102.93;;;14.60;56.80;;;;;;5110303;28;20104;-53
2022/01/27 11:36:29;;;;;;;229.23;112.07;;;14.60;54.20;;;;;;5118106;28;20077;-53
2022/01/27 11:38:57;;;;;;;210.48;110.28;;;15.00;52.50;;;;;;5117373;28;20030;-53
2022/01/27 11:41:44;;;;;;;216.65;112.65;;;14.10;57.50;;;;;;5106480;28;20031;-53
2022/01/27 11:44:24;;;;;;;197.05;107.68;;;14.90;53.50;;;;;;5117444;28;20024;-53
2022/01/27 11:47:17;;;;;;;186.00;104.72;;;16.10;50.00;;;;;;5106385;28;20538;-53
2022/01/27 11:50:06;;;;;;;170.50;90.32;;;16.80;45.50;;;;;;5114692;28;20047;-53
2022/01/27 11:52:34;;;;;;;179.73;99.72;;;16.80;43.90;;;;;;5111774;27;20034;-53
2022/01/27 11:55:32;;;;;;;179.50;102.38;;;15.90;44.60;;;;;;5117054;27;20046;-53
2022/01/27 11:57:59;;;;;;;173.27;95.90;;;15.40;47.60;;;;;;5113026;28;20508;-53
2022/01/27 12:00:30;;;;;;;181.77;99.22;;;14.70;51.90;;;;;;5117281;28;20055;-53
2022/01/27 12:03:04;;;;;;;178.50;102.82;;;14.70;53.20;;;;;;5103533;27;20063;-53
2022/01/27 12:05:39;;;;;;;178.25;99.03;;;14.50;51.60;;;;;;5116782;28;20024;-53
2022/01/27 12:08:17;;;;;;;166.93;94.45;;;15.40;50.90;;;;;;5113427;28;20386;-53
2022/01/27 12:11:05;;;;;;;155.98;89.55;;;16.60;45.90;;;;;;5115728;28;20032;-53
2022/01/27 12:13:36;;;;;;;172.30;94.93;;;16.10;45.20;;;;;;5105545;28;20065;-53
2022/01/27 12:18:59;;;;;;;143.23;74.70;;;16.90;42.20;;;;;;5115154;28;20529;-53
2022/01/27 12:21:53;;;;;;;118.03;69.22;;;16.30;42.20;;;;;;5115362;28;20034;-53
2022/01/27 12:24:25;;;;;;;127.20;72.35;;;16.80;42.00;;;;;;5115396;28;20107;-53
2022/01/27 12:27:16;;;;;;;124.82;72.75;;;17.50;40.40;;;;;;5117044;28;20031;-53
2022/01/27 12:29:47;;;;;;;134.00;72.53;;;17.80;40.50;;;;;;5116415;28;20502;-53
2022/01/27 12:32:16;;;;;;;121.13;68.43;;;17.10;39.40;;;;;;5116629;28;20035;-53
2022/01/27 12:34:47;;;;;;;125.03;73.38;;;16.60;41.00;;;;;;5117278;28;20119;-53
2022/01/27 12:37:14;;;;;;;130.20;73.47;;;15.50;42.90;;;;;;5110591;28;20020;-53
2022/01/27 12:39:43;;;;;;;126.18;70.97;;;15.60;44.60;;;;;;5100826;28;20067;-53
2022/01/27 12:42:13;;;;;;;108.25;61.83;;;15.30;45.80;;;;;;5117000;28;20051;-53
2022/01/27 12:44:42;;;;;;;104.35;63.15;;;14.90;46.40;;;;;;5100999;28;20028;-53
2022/01/27 12:47:14;;;;;;;105.97;60.63;;;14.80;47.20;;;;;;5101167;28;20023;-53
2022/01/27 12:49:50;;;;;;;122.90;65.30;;;13.90;49.60;;;;;;5113945;28;20098;-53
2022/01/27 12:52:22;;;;;;;105.13;56.85;;;13.10;56.80;;;;;;5110333;28;20515;-53
2022/01/27 12:54:51;;;;;;;95.18;50.65;;;12.70;58.50;;;;;;5111776;28;20057;-53
2022/01/27 12:57:28;;;;;;;101.85;54.88;;;12.40;62.40;;;;;;5109833;27;20031;-53
2022/01/27 12:59:56;;;;;;;108.28;55.88;;;11.90;69.80;;;;;;5115011;28;20050;-53
2022/01/27 13:02:29;;;;;;;112.90;60.55;;;12.10;68.20;;;;;;5112603;28;20496;-53
2022/01/27 13:04:57;;;;;;;111.88;57.13;;;11.70;74.30;;;;;;5112241;28;20024;-52
2022/01/27 13:07:25;;;;;;;109.30;56.17;;;11.80;75.10;;;;;;5113084;28;20027;-53
2022/01/27 13:10:00;;;;;;;104.90;53.95;;;11.80;76.00;;;;;;5116001;28;20358;-53